sensor_id;sensor_type;location;lat;lon;timestamp;temperature;humidity
23251;DHT22;11794;49.730;10.088;2023-06-22T00:01:17;19.50;99.90
23251;DHT22;11794;49.730;10.088;2023-06-22T00:03:42;19.40;99.90
23251;DHT22;11794;49.730;10.088;2023-06-22T00:06:08;19.40;99.90
23251;DHT22;11794;49.730;10.088;2023-06-22T00:08:33;19.40;99.90
23251;DHT22;11794;49.730;10.088;2023-06-22T00:10:59;19.40;99.90
23251;DHT22;11794;49.730;10.088;2023-06-22T00:13:24;19.40;99.90
23251;DHT22;11794;49.730;10.088;2023-06-22T00:15:50;19.50;99.90
23251;DHT22;11794;49.730;10.088;2023-06-22T00:18:15;19.50;99.90
23251;DHT22;11794;49.730;10.088;2023-06-22T00:20:41;19.50;99.90
23251;DHT22;11794;49.730;10.088;2023-06-22T00:23:07;19.50;99.90
23251;DHT22;11794;49.730;10.088;2023-06-22T00:25:37;19.50;99.90
23251;DHT22;11794;49.730;10.088;2023-06-22T00:28:05;19.50;99.90
23251;DHT22;11794;49.730;10.088;2023-06-22T00:30:32;19.50;99.90
23251;DHT22;11794;49.730;10.088;2023-06-22T00:32:58;19.60;99.90
23251;DHT22;11794;49.730;10.088;2023-06-22T00:35:24;19.60;99.90
23251;DHT22;11794;49.730;10.088;2023-06-22T00:37:58;19.50;99.90
23251;DHT22;11794;49.730;10.088;2023-06-22T00:40:29;19.40;99.90
23251;DHT22;11794;49.730;10.088;2023-06-22T00:42:55;19.30;99.90
23251;DHT22;11794;49.730;10.088;2023-06-22T00:45:24;19.20;99.90
23251;DHT22;11794;49.730;10.088;2023-06-22T00:47:52;19.10;99.90
23251;DHT22;11794;49.730;10.088;2023-06-22T00:50:20;19.20;99.90
23251;DHT22;11794;49.730;10.088;2023-06-22T00:52:49;19.20;99.90
23251;DHT22;11794;49.730;10.088;2023-06-22T00:55:16;19.30;99.90
23251;DHT22;11794;49.730;10.088;2023-06-22T00:57:45;19.20;99.90
23251;DHT22;11794;49.730;10.088;2023-06-22T01:00:11;19.20;99.90
23251;DHT22;11794;49.730;10.088;2023-06-22T01:02:42;19.20;99.90
23251;DHT22;11794;49.730;10.088;2023-06-22T01:05:14;19.20;99.90
23251;DHT22;11794;49.730;10.088;2023-06-22T01:10:41;19.30;99.90
23251;DHT22;11794;49.730;10.088;2023-06-22T01:15:46;19.20;99.90
23251;DHT22;11794;49.730;10.088;2023-06-22T01:18:16;19.20;99.90
23251;DHT22;11794;49.730;10.088;2023-06-22T01:20:42;19.20;99.90
23251;DHT22;11794;49.730;10.088;2023-06-22T01:23:42;19.10;99.90
23251;DHT22;11794;49.730;10.088;2023-06-22T01:26:22;19.10;99.90
23251;DHT22;11794;49.730;10.088;2023-06-22T01:28:54;19.10;99.90
23251;DHT22;11794;49.730;10.088;2023-06-22T01:31:24;19.10;99.90
23251;DHT22;11794;49.730;10.088;2023-06-22T01:33:53;19.10;99.90
23251;DHT22;11794;49.730;10.088;2023-06-22T01:36:21;19.10;99.90
23251;DHT22;11794;49.730;10.088;2023-06-22T01:38:47;19.10;99.90
23251;DHT22;11794;49.730;10.088;2023-06-22T01:41:13;19.00;99.90
23251;DHT22;11794;49.730;10.088;2023-06-22T01:43:40;19.00;99.90
23251;DHT22;11794;49.730;10.088;2023-06-22T01:46:07;18.90;99.90
23251;DHT22;11794;49.730;10.088;2023-06-22T01:48:33;19.00;99.90
23251;DHT22;11794;49.730;10.088;2023-06-22T01:50:59;19.00;99.90
23251;DHT22;11794;49.730;10.088;2023-06-22T01:53:25;19.10;99.90
23251;DHT22;11794;49.730;10.088;2023-06-22T01:55:51;19.20;99.90
23251;DHT22;11794;49.730;10.088;2023-06-22T01:58:17;19.30;99.90
23251;DHT22;11794;49.730;10.088;2023-06-22T02:00:52;19.30;99.90
23251;DHT22;11794;49.730;10.088;2023-06-22T02:03:21;19.30;99.90
23251;DHT22;11794;49.730;10.088;2023-06-22T02:05:50;19.10;99.90
23251;DHT22;11794;49.730;10.088;2023-06-22T02:08:25;19.10;99.90
23251;DHT22;11794;49.730;10.088;2023-06-22T02:10:53;19.10;99.90
23251;DHT22;11794;49.730;10.088;2023-06-22T02:13:20;19.20;99.90
23251;DHT22;11794;49.730;10.088;2023-06-22T02:15:46;19.20;99.90
23251;DHT22;11794;49.730;10.088;2023-06-22T02:18:13;19.30;99.90
23251;DHT22;11794;49.730;10.088;2023-06-22T02:20:39;19.30;99.90
23251;DHT22;11794;49.730;10.088;2023-06-22T02:23:08;19.30;99.90
23251;DHT22;11794;49.730;10.088;2023-06-22T02:25:34;19.30;99.90
23251;DHT22;11794;49.730;10.088;2023-06-22T02:28:00;19.20;99.90
23251;DHT22;11794;49.730;10.088;2023-06-22T02:30:25;19.20;99.90
23251;DHT22;11794;49.730;10.088;2023-06-22T02:32:51;19.20;99.90
23251;DHT22;11794;49.730;10.088;2023-06-22T02:35:32;19.20;99.90
23251;DHT22;11794;49.730;10.088;2023-06-22T02:38:01;19.20;99.90
23251;DHT22;11794;49.730;10.088;2023-06-22T02:40:28;19.20;99.90
23251;DHT22;11794;49.730;10.088;2023-06-22T02:42:55;19.10;99.90
23251;DHT22;11794;49.730;10.088;2023-06-22T02:45:20;19.00;99.90
23251;DHT22;11794;49.730;10.088;2023-06-22T02:47:46;19.00;99.90
23251;DHT22;11794;49.730;10.088;2023-06-22T02:50:13;18.90;99.90
23251;DHT22;11794;49.730;10.088;2023-06-22T02:52:39;18.90;99.90
23251;DHT22;11794;49.730;10.088;2023-06-22T02:55:05;18.90;99.90
23251;DHT22;11794;49.730;10.088;2023-06-22T02:57:32;18.90;99.90
23251;DHT22;11794;49.730;10.088;2023-06-22T02:59:58;18.90;99.90
23251;DHT22;11794;49.730;10.088;2023-06-22T03:02:24;18.90;99.90
23251;DHT22;11794;49.730;10.088;2023-06-22T03:04:51;18.90;99.90
23251;DHT22;11794;49.730;10.088;2023-06-22T03:07:19;18.90;99.90
23251;DHT22;11794;49.730;10.088;2023-06-22T03:09:44;19.00;99.90
23251;DHT22;11794;49.730;10.088;2023-06-22T03:12:10;18.90;99.90
23251;DHT22;11794;49.730;10.088;2023-06-22T03:14:36;18.90;99.90
23251;DHT22;11794;49.730;10.088;2023-06-22T03:17:01;18.90;99.90
23251;DHT22;11794;49.730;10.088;2023-06-22T03:19:29;18.90;99.90
23251;DHT22;11794;49.730;10.088;2023-06-22T03:21:57;18.90;99.90
23251;DHT22;11794;49.730;10.088;2023-06-22T03:24:22;18.80;99.90
23251;DHT22;11794;49.730;10.088;2023-06-22T03:26:48;18.80;99.90
23251;DHT22;11794;49.730;10.088;2023-06-22T03:29:14;18.70;99.90
23251;DHT22;11794;49.730;10.088;2023-06-22T03:31:39;18.70;99.90
23251;DHT22;11794;49.730;10.088;2023-06-22T03:34:05;18.70;99.90
23251;DHT22;11794;49.730;10.088;2023-06-22T03:36:30;18.70;99.90
23251;DHT22;11794;49.730;10.088;2023-06-22T03:38:56;18.70;99.90
23251;DHT22;11794;49.730;10.088;2023-06-22T03:41:21;18.70;99.90
23251;DHT22;11794;49.730;10.088;2023-06-22T03:43:47;18.70;99.90
23251;DHT22;11794;49.730;10.088;2023-06-22T03:46:13;18.70;99.90
23251;DHT22;11794;49.730;10.088;2023-06-22T03:48:38;18.70;99.90
23251;DHT22;11794;49.730;10.088;2023-06-22T03:51:04;18.70;99.90
23251;DHT22;11794;49.730;10.088;2023-06-22T03:53:30;18.80;99.90
23251;DHT22;11794;49.730;10.088;2023-06-22T03:55:55;18.80;99.90
23251;DHT22;11794;49.730;10.088;2023-06-22T03:58:21;18.90;99.90
23251;DHT22;11794;49.730;10.088;2023-06-22T04:00:48;18.90;99.90
23251;DHT22;11794;49.730;10.088;2023-06-22T04:03:17;19.00;99.90
23251;DHT22;11794;49.730;10.088;2023-06-22T04:05:46;18.90;99.90
23251;DHT22;11794;49.730;10.088;2023-06-22T04:08:13;19.00;99.90
23251;DHT22;11794;49.730;10.088;2023-06-22T04:10:38;19.10;99.90
23251;DHT22;11794;49.730;10.088;2023-06-22T04:13:05;19.10;99.90
23251;DHT22;11794;49.730;10.088;2023-06-22T04:15:30;19.10;99.90
23251;DHT22;11794;49.730;10.088;2023-06-22T04:17:56;19.20;99.90
23251;DHT22;11794;49.730;10.088;2023-06-22T04:20:23;19.30;99.90
23251;DHT22;11794;49.730;10.088;2023-06-22T04:22:54;19.40;99.90
23251;DHT22;11794;49.730;10.088;2023-06-22T04:25:19;19.40;99.90
23251;DHT22;11794;49.730;10.088;2023-06-22T04:27:45;19.40;99.90
23251;DHT22;11794;49.730;10.088;2023-06-22T04:30:11;19.50;99.90
23251;DHT22;11794;49.730;10.088;2023-06-22T04:32:37;19.50;99.90
23251;DHT22;11794;49.730;10.088;2023-06-22T04:35:03;19.50;99.90
23251;DHT22;11794;49.730;10.088;2023-06-22T04:37:33;19.50;99.90
23251;DHT22;11794;49.730;10.088;2023-06-22T04:39:58;19.60;99.90
23251;DHT22;11794;49.730;10.088;2023-06-22T04:42:26;19.50;99.90
23251;DHT22;11794;49.730;10.088;2023-06-22T04:44:52;19.50;99.90
23251;DHT22;11794;49.730;10.088;2023-06-22T04:47:17;19.50;99.90
23251;DHT22;11794;49.730;10.088;2023-06-22T04:49:43;19.50;99.90
23251;DHT22;11794;49.730;10.088;2023-06-22T04:52:11;19.60;99.90
23251;DHT22;11794;49.730;10.088;2023-06-22T04:54:38;19.60;99.90
23251;DHT22;11794;49.730;10.088;2023-06-22T04:57:06;19.50;99.90
23251;DHT22;11794;49.730;10.088;2023-06-22T04:59:36;19.50;99.90
23251;DHT22;11794;49.730;10.088;2023-06-22T05:02:04;19.60;99.90
23251;DHT22;11794;49.730;10.088;2023-06-22T05:04:31;19.70;99.90
23251;DHT22;11794;49.730;10.088;2023-06-22T05:06:57;19.80;99.90
23251;DHT22;11794;49.730;10.088;2023-06-22T05:09:23;19.90;99.90
23251;DHT22;11794;49.730;10.088;2023-06-22T05:11:50;20.00;99.90
23251;DHT22;11794;49.730;10.088;2023-06-22T05:14:16;20.10;99.90
23251;DHT22;11794;49.730;10.088;2023-06-22T05:16:42;20.20;99.90
23251;DHT22;11794;49.730;10.088;2023-06-22T05:19:08;20.20;99.90
23251;DHT22;11794;49.730;10.088;2023-06-22T05:21:34;20.30;99.90
23251;DHT22;11794;49.730;10.088;2023-06-22T05:24:00;20.40;99.90
23251;DHT22;11794;49.730;10.088;2023-06-22T05:26:28;20.50;99.90
23251;DHT22;11794;49.730;10.088;2023-06-22T05:28:54;20.50;99.90
23251;DHT22;11794;49.730;10.088;2023-06-22T05:31:20;20.60;99.90
23251;DHT22;11794;49.730;10.088;2023-06-22T05:33:46;20.60;99.90
23251;DHT22;11794;49.730;10.088;2023-06-22T05:36:12;20.70;99.90
23251;DHT22;11794;49.730;10.088;2023-06-22T05:38:38;20.70;99.90
23251;DHT22;11794;49.730;10.088;2023-06-22T05:41:04;20.80;99.90
23251;DHT22;11794;49.730;10.088;2023-06-22T05:43:30;20.90;99.90
23251;DHT22;11794;49.730;10.088;2023-06-22T05:45:56;21.00;99.90
23251;DHT22;11794;49.730;10.088;2023-06-22T05:48:22;20.90;99.90
23251;DHT22;11794;49.730;10.088;2023-06-22T05:50:48;21.00;99.90
23251;DHT22;11794;49.730;10.088;2023-06-22T05:53:13;21.10;99.90
23251;DHT22;11794;49.730;10.088;2023-06-22T05:55:39;21.10;99.90
23251;DHT22;11794;49.730;10.088;2023-06-22T05:58:04;21.30;99.90
23251;DHT22;11794;49.730;10.088;2023-06-22T06:00:30;21.40;99.90
23251;DHT22;11794;49.730;10.088;2023-06-22T06:02:56;21.50;99.90
23251;DHT22;11794;49.730;10.088;2023-06-22T06:05:22;21.60;99.90
23251;DHT22;11794;49.730;10.088;2023-06-22T06:07:49;21.70;99.90
23251;DHT22;11794;49.730;10.088;2023-06-22T06:10:15;21.70;99.90
23251;DHT22;11794;49.730;10.088;2023-06-22T06:12:40;21.80;99.90
23251;DHT22;11794;49.730;10.088;2023-06-22T06:15:06;21.90;99.90
23251;DHT22;11794;49.730;10.088;2023-06-22T06:17:32;22.00;99.90
23251;DHT22;11794;49.730;10.088;2023-06-22T06:19:59;22.00;99.90
23251;DHT22;11794;49.730;10.088;2023-06-22T06:22:25;22.20;99.90
23251;DHT22;11794;49.730;10.088;2023-06-22T06:24:50;22.30;99.90
23251;DHT22;11794;49.730;10.088;2023-06-22T06:27:16;22.50;99.90
23251;DHT22;11794;49.730;10.088;2023-06-22T06:29:43;22.50;99.90
23251;DHT22;11794;49.730;10.088;2023-06-22T06:32:11;22.70;99.90
23251;DHT22;11794;49.730;10.088;2023-06-22T06:34:36;22.80;99.90
23251;DHT22;11794;49.730;10.088;2023-06-22T06:37:02;23.00;99.90
23251;DHT22;11794;49.730;10.088;2023-06-22T06:39:27;23.00;99.90
23251;DHT22;11794;49.730;10.088;2023-06-22T06:41:53;23.00;99.90
23251;DHT22;11794;49.730;10.088;2023-06-22T06:44:18;23.20;99.90
23251;DHT22;11794;49.730;10.088;2023-06-22T06:46:44;23.20;99.90
23251;DHT22;11794;49.730;10.088;2023-06-22T06:49:09;23.30;99.90
23251;DHT22;11794;49.730;10.088;2023-06-22T06:51:35;23.40;99.90
23251;DHT22;11794;49.730;10.088;2023-06-22T06:54:01;23.70;99.90
23251;DHT22;11794;49.730;10.088;2023-06-22T06:56:26;24.00;99.90
23251;DHT22;11794;49.730;10.088;2023-06-22T06:58:52;24.10;99.90
23251;DHT22;11794;49.730;10.088;2023-06-22T07:01:17;24.30;99.90
23251;DHT22;11794;49.730;10.088;2023-06-22T07:03:45;24.30;99.90
23251;DHT22;11794;49.730;10.088;2023-06-22T07:06:10;24.40;99.90
23251;DHT22;11794;49.730;10.088;2023-06-22T07:08:36;24.60;99.90
23251;DHT22;11794;49.730;10.088;2023-06-22T07:11:02;24.70;99.90
23251;DHT22;11794;49.730;10.088;2023-06-22T07:13:27;25.00;99.90
23251;DHT22;11794;49.730;10.088;2023-06-22T07:15:53;25.00;99.90
23251;DHT22;11794;49.730;10.088;2023-06-22T07:18:19;25.00;99.90
23251;DHT22;11794;49.730;10.088;2023-06-22T07:20:44;25.10;99.90
23251;DHT22;11794;49.730;10.088;2023-06-22T07:23:10;25.30;99.90
23251;DHT22;11794;49.730;10.088;2023-06-22T07:25:35;25.60;99.90
23251;DHT22;11794;49.730;10.088;2023-06-22T07:28:03;26.00;99.90
23251;DHT22;11794;49.730;10.088;2023-06-22T07:30:30;26.10;99.90
23251;DHT22;11794;49.730;10.088;2023-06-22T07:32:57;26.60;99.90
23251;DHT22;11794;49.730;10.088;2023-06-22T07:35:23;26.80;99.90
23251;DHT22;11794;49.730;10.088;2023-06-22T07:37:49;27.00;99.90
23251;DHT22;11794;49.730;10.088;2023-06-22T07:40:14;27.20;99.90
23251;DHT22;11794;49.730;10.088;2023-06-22T07:42:40;27.30;99.90
23251;DHT22;11794;49.730;10.088;2023-06-22T07:45:06;27.40;99.90
23251;DHT22;11794;49.730;10.088;2023-06-22T07:47:33;27.70;99.90
23251;DHT22;11794;49.730;10.088;2023-06-22T07:50:00;27.70;99.90
23251;DHT22;11794;49.730;10.088;2023-06-22T07:52:27;28.00;99.90
23251;DHT22;11794;49.730;10.088;2023-06-22T07:54:53;28.00;99.90
23251;DHT22;11794;49.730;10.088;2023-06-22T07:57:18;28.20;99.90
23251;DHT22;11794;49.730;10.088;2023-06-22T07:59:44;28.40;99.90
23251;DHT22;11794;49.730;10.088;2023-06-22T08:02:10;28.60;99.90
23251;DHT22;11794;49.730;10.088;2023-06-22T08:04:35;28.40;99.90
23251;DHT22;11794;49.730;10.088;2023-06-22T08:07:01;28.50;99.90
23251;DHT22;11794;49.730;10.088;2023-06-22T08:09:31;28.40;99.90
23251;DHT22;11794;49.730;10.088;2023-06-22T08:11:57;28.10;99.90
23251;DHT22;11794;49.730;10.088;2023-06-22T08:14:24;28.40;99.90
23251;DHT22;11794;49.730;10.088;2023-06-22T08:16:50;28.50;99.90
23251;DHT22;11794;49.730;10.088;2023-06-22T08:19:16;28.30;99.90
23251;DHT22;11794;49.730;10.088;2023-06-22T08:21:41;28.90;99.90
23251;DHT22;11794;49.730;10.088;2023-06-22T08:24:07;29.40;99.90
23251;DHT22;11794;49.730;10.088;2023-06-22T08:26:33;29.90;99.90
23251;DHT22;11794;49.730;10.088;2023-06-22T08:29:02;30.10;99.90
23251;DHT22;11794;49.730;10.088;2023-06-22T08:31:27;30.30;99.90
23251;DHT22;11794;49.730;10.088;2023-06-22T08:33:53;30.70;99.90
23251;DHT22;11794;49.730;10.088;2023-06-22T08:36:18;30.80;99.90
23251;DHT22;11794;49.730;10.088;2023-06-22T08:38:44;31.00;99.90
23251;DHT22;11794;49.730;10.088;2023-06-22T08:41:10;31.10;99.90
23251;DHT22;11794;49.730;10.088;2023-06-22T08:43:35;30.80;99.90
23251;DHT22;11794;49.730;10.088;2023-06-22T08:46:01;31.00;99.90
23251;DHT22;11794;49.730;10.088;2023-06-22T08:48:28;31.30;99.90
23251;DHT22;11794;49.730;10.088;2023-06-22T08:50:53;31.10;99.90
23251;DHT22;11794;49.730;10.088;2023-06-22T08:53:19;31.10;99.90
23251;DHT22;11794;49.730;10.088;2023-06-22T08:55:45;31.40;99.90
23251;DHT22;11794;49.730;10.088;2023-06-22T08:58:10;31.70;99.90
23251;DHT22;11794;49.730;10.088;2023-06-22T09:00:36;31.90;99.90
23251;DHT22;11794;49.730;10.088;2023-06-22T09:03:02;32.30;99.90
23251;DHT22;11794;49.730;10.088;2023-06-22T09:05:29;32.30;99.90
23251;DHT22;11794;49.730;10.088;2023-06-22T09:07:56;32.80;99.90
23251;DHT22;11794;49.730;10.088;2023-06-22T09:10:22;33.20;99.90
23251;DHT22;11794;49.730;10.088;2023-06-22T09:12:47;33.30;99.90
23251;DHT22;11794;49.730;10.088;2023-06-22T09:15:13;32.60;99.90
23251;DHT22;11794;49.730;10.088;2023-06-22T09:17:38;32.60;99.90
23251;DHT22;11794;49.730;10.088;2023-06-22T09:20:04;32.60;99.90
23251;DHT22;11794;49.730;10.088;2023-06-22T09:22:31;32.20;99.90
23251;DHT22;11794;49.730;10.088;2023-06-22T09:24:57;32.90;99.90
23251;DHT22;11794;49.730;10.088;2023-06-22T09:27:23;33.50;99.90
23251;DHT22;11794;49.730;10.088;2023-06-22T09:29:49;34.00;99.90
23251;DHT22;11794;49.730;10.088;2023-06-22T09:32:15;34.10;99.90
23251;DHT22;11794;49.730;10.088;2023-06-22T09:34:40;34.30;99.90
23251;DHT22;11794;49.730;10.088;2023-06-22T09:37:06;34.20;99.90
23251;DHT22;11794;49.730;10.088;2023-06-22T09:39:32;34.10;98.70
23251;DHT22;11794;49.730;10.088;2023-06-22T09:41:58;34.10;99.00
23251;DHT22;11794;49.730;10.088;2023-06-22T09:44:24;34.50;99.30
23251;DHT22;11794;49.730;10.088;2023-06-22T09:46:50;34.90;97.60
23251;DHT22;11794;49.730;10.088;2023-06-22T09:49:15;35.20;99.50
23251;DHT22;11794;49.730;10.088;2023-06-22T09:51:41;35.60;97.30
23251;DHT22;11794;49.730;10.088;2023-06-22T09:54:06;35.50;96.10
23251;DHT22;11794;49.730;10.088;2023-06-22T09:56:32;34.80;95.10
23251;DHT22;11794;49.730;10.088;2023-06-22T09:58:57;34.70;97.00
23251;DHT22;11794;49.730;10.088;2023-06-22T10:01:23;34.10;96.60
23251;DHT22;11794;49.730;10.088;2023-06-22T10:03:50;34.40;97.10
23251;DHT22;11794;49.730;10.088;2023-06-22T10:06:15;35.00;97.30
23251;DHT22;11794;49.730;10.088;2023-06-22T10:08:41;35.60;96.40
23251;DHT22;11794;49.730;10.088;2023-06-22T10:11:06;36.00;94.10
23251;DHT22;11794;49.730;10.088;2023-06-22T10:13:32;35.70;93.80
23251;DHT22;11794;49.730;10.088;2023-06-22T10:15:57;35.30;93.60
23251;DHT22;11794;49.730;10.088;2023-06-22T10:18:23;34.60;95.70
23251;DHT22;11794;49.730;10.088;2023-06-22T10:20:50;34.80;96.60
23251;DHT22;11794;49.730;10.088;2023-06-22T10:23:17;35.00;95.10
23251;DHT22;11794;49.730;10.088;2023-06-22T10:25:42;34.50;94.30
23251;DHT22;11794;49.730;10.088;2023-06-22T10:28:08;34.60;96.70
23251;DHT22;11794;49.730;10.088;2023-06-22T10:30:33;35.20;95.20
23251;DHT22;11794;49.730;10.088;2023-06-22T10:32:59;35.70;95.10
23251;DHT22;11794;49.730;10.088;2023-06-22T10:35:24;36.20;94.00
23251;DHT22;11794;49.730;10.088;2023-06-22T10:37:50;35.70;92.30
23251;DHT22;11794;49.730;10.088;2023-06-22T10:40:17;35.10;94.20
23251;DHT22;11794;49.730;10.088;2023-06-22T10:42:44;34.60;94.00
23251;DHT22;11794;49.730;10.088;2023-06-22T10:45:10;34.30;94.00
23251;DHT22;11794;49.730;10.088;2023-06-22T10:47:36;33.90;96.60
23251;DHT22;11794;49.730;10.088;2023-06-22T10:50:02;34.10;96.70
23251;DHT22;11794;49.730;10.088;2023-06-22T10:52:28;34.90;96.20
23251;DHT22;11794;49.730;10.088;2023-06-22T10:54:53;35.70;95.40
23251;DHT22;11794;49.730;10.088;2023-06-22T10:57:19;35.90;94.10
23251;DHT22;11794;49.730;10.088;2023-06-22T10:59:44;36.00;92.10
23251;DHT22;11794;49.730;10.088;2023-06-22T11:02:10;35.80;92.30
23251;DHT22;11794;49.730;10.088;2023-06-22T11:04:35;35.90;92.80
23251;DHT22;11794;49.730;10.088;2023-06-22T11:07:01;35.10;93.70
23251;DHT22;11794;49.730;10.088;2023-06-22T11:09:27;34.70;92.70
23251;DHT22;11794;49.730;10.088;2023-06-22T11:11:52;34.10;94.10
23251;DHT22;11794;49.730;10.088;2023-06-22T11:14:21;33.70;95.20
23251;DHT22;11794;49.730;10.088;2023-06-22T11:16:47;33.50;95.40
23251;DHT22;11794;49.730;10.088;2023-06-22T11:19:13;34.30;96.90
23251;DHT22;11794;49.730;10.088;2023-06-22T11:21:38;35.30;94.10
23251;DHT22;11794;49.730;10.088;2023-06-22T11:24:04;35.80;93.80
23251;DHT22;11794;49.730;10.088;2023-06-22T11:26:30;36.70;93.60
23251;DHT22;11794;49.730;10.088;2023-06-22T11:28:57;36.20;92.10
23251;DHT22;11794;49.730;10.088;2023-06-22T11:31:23;36.00;91.90
23251;DHT22;11794;49.730;10.088;2023-06-22T11:33:49;36.60;90.80
23251;DHT22;11794;49.730;10.088;2023-06-22T11:36:14;36.10;91.20
23251;DHT22;11794;49.730;10.088;2023-06-22T11:38:40;36.40;92.30
23251;DHT22;11794;49.730;10.088;2023-06-22T11:41:07;36.30;91.10
23251;DHT22;11794;49.730;10.088;2023-06-22T11:43:33;36.40;91.90
23251;DHT22;11794;49.730;10.088;2023-06-22T11:45:59;36.10;92.50
23251;DHT22;11794;49.730;10.088;2023-06-22T11:48:25;35.90;92.60
23251;DHT22;11794;49.730;10.088;2023-06-22T11:50:50;36.00;93.70
23251;DHT22;11794;49.730;10.088;2023-06-22T11:53:16;36.50;91.90
23251;DHT22;11794;49.730;10.088;2023-06-22T11:55:43;36.90;91.90
23251;DHT22;11794;49.730;10.088;2023-06-22T11:58:08;37.00;90.50
23251;DHT22;11794;49.730;10.088;2023-06-22T12:00:34;36.90;91.40
23251;DHT22;11794;49.730;10.088;2023-06-22T12:03:00;37.10;92.20
23251;DHT22;11794;49.730;10.088;2023-06-22T12:05:25;36.80;90.60
23251;DHT22;11794;49.730;10.088;2023-06-22T12:07:53;36.70;90.30
23251;DHT22;11794;49.730;10.088;2023-06-22T12:10:20;36.20;90.50
23251;DHT22;11794;49.730;10.088;2023-06-22T12:12:45;35.50;92.10
23251;DHT22;11794;49.730;10.088;2023-06-22T12:15:11;35.60;93.60
23251;DHT22;11794;49.730;10.088;2023-06-22T12:17:36;35.70;93.10
23251;DHT22;11794;49.730;10.088;2023-06-22T12:20:02;36.40;91.50
23251;DHT22;11794;49.730;10.088;2023-06-22T12:22:34;36.80;92.00
23251;DHT22;11794;49.730;10.088;2023-06-22T12:25:00;36.90;90.40
23251;DHT22;11794;49.730;10.088;2023-06-22T12:27:25;36.80;90.30
23251;DHT22;11794;49.730;10.088;2023-06-22T12:29:51;36.20;91.20
23251;DHT22;11794;49.730;10.088;2023-06-22T12:32:16;36.50;90.00
23251;DHT22;11794;49.730;10.088;2023-06-22T12:34:42;36.10;90.80
23251;DHT22;11794;49.730;10.088;2023-06-22T12:37:08;36.00;91.80
23251;DHT22;11794;49.730;10.088;2023-06-22T12:39:34;35.60;90.60
23251;DHT22;11794;49.730;10.088;2023-06-22T12:41:59;35.20;92.30
23251;DHT22;11794;49.730;10.088;2023-06-22T12:44:25;35.20;92.00
23251;DHT22;11794;49.730;10.088;2023-06-22T12:46:51;35.00;92.60
23251;DHT22;11794;49.730;10.088;2023-06-22T12:49:16;34.70;92.50
23251;DHT22;11794;49.730;10.088;2023-06-22T12:51:43;34.40;93.70
23251;DHT22;11794;49.730;10.088;2023-06-22T12:54:09;34.40;94.10
23251;DHT22;11794;49.730;10.088;2023-06-22T12:56:35;34.00;93.30
23251;DHT22;11794;49.730;10.088;2023-06-22T12:59:00;33.90;93.80
23251;DHT22;11794;49.730;10.088;2023-06-22T13:01:30;33.60;93.30
23251;DHT22;11794;49.730;10.088;2023-06-22T13:03:57;33.70;94.40
23251;DHT22;11794;49.730;10.088;2023-06-22T13:06:23;33.80;92.70
23251;DHT22;11794;49.730;10.088;2023-06-22T13:08:48;34.00;94.90
23251;DHT22;11794;49.730;10.088;2023-06-22T13:11:14;34.20;94.20
23251;DHT22;11794;49.730;10.088;2023-06-22T13:13:40;34.90;95.20
23251;DHT22;11794;49.730;10.088;2023-06-22T13:16:05;36.40;93.00
23251;DHT22;11794;49.730;10.088;2023-06-22T13:18:31;37.40;91.70
23251;DHT22;11794;49.730;10.088;2023-06-22T13:20:56;38.30;91.10
23251;DHT22;11794;49.730;10.088;2023-06-22T13:23:23;38.60;89.20
23251;DHT22;11794;49.730;10.088;2023-06-22T13:25:49;39.00;91.30
23251;DHT22;11794;49.730;10.088;2023-06-22T13:28:14;38.50;89.80
23251;DHT22;11794;49.730;10.088;2023-06-22T13:30:41;37.70;90.40
23251;DHT22;11794;49.730;10.088;2023-06-22T13:33:07;36.60;89.90
23251;DHT22;11794;49.730;10.088;2023-06-22T13:35:34;35.30;91.60
23251;DHT22;11794;49.730;10.088;2023-06-22T13:38:00;34.40;92.70
23251;DHT22;11794;49.730;10.088;2023-06-22T13:40:26;34.10;93.70
23251;DHT22;11794;49.730;10.088;2023-06-22T13:42:51;33.80;92.80
23251;DHT22;11794;49.730;10.088;2023-06-22T13:45:17;33.60;93.10
23251;DHT22;11794;49.730;10.088;2023-06-22T13:47:44;33.60;94.40
23251;DHT22;11794;49.730;10.088;2023-06-22T13:50:10;33.70;92.90
23251;DHT22;11794;49.730;10.088;2023-06-22T13:52:35;33.80;92.30
23251;DHT22;11794;49.730;10.088;2023-06-22T13:55:01;33.80;93.40
23251;DHT22;11794;49.730;10.088;2023-06-22T13:57:27;34.20;95.30
23251;DHT22;11794;49.730;10.088;2023-06-22T13:59:53;35.10;95.50
23251;DHT22;11794;49.730;10.088;2023-06-22T14:02:18;35.60;92.80
23251;DHT22;11794;49.730;10.088;2023-06-22T14:04:44;36.00;91.80
23251;DHT22;11794;49.730;10.088;2023-06-22T14:07:09;35.90;91.90
23251;DHT22;11794;49.730;10.088;2023-06-22T14:09:35;36.20;91.30
23251;DHT22;11794;49.730;10.088;2023-06-22T14:12:05;36.10;92.00
23251;DHT22;11794;49.730;10.088;2023-06-22T14:14:31;36.20;89.10
23251;DHT22;11794;49.730;10.088;2023-06-22T14:16:58;36.30;90.30
23251;DHT22;11794;49.730;10.088;2023-06-22T14:19:23;36.20;91.70
23251;DHT22;11794;49.730;10.088;2023-06-22T14:21:49;36.20;90.30
23251;DHT22;11794;49.730;10.088;2023-06-22T14:24:14;35.90;90.60
23251;DHT22;11794;49.730;10.088;2023-06-22T14:26:40;35.70;91.80
23251;DHT22;11794;49.730;10.088;2023-06-22T14:29:05;35.30;90.50
23251;DHT22;11794;49.730;10.088;2023-06-22T14:31:31;35.00;91.50
23251;DHT22;11794;49.730;10.088;2023-06-22T14:33:57;34.80;92.40
23251;DHT22;11794;49.730;10.088;2023-06-22T14:36:23;34.90;91.80
23251;DHT22;11794;49.730;10.088;2023-06-22T14:38:48;34.90;91.90
23251;DHT22;11794;49.730;10.088;2023-06-22T14:41:14;35.20;92.00
23251;DHT22;11794;49.730;10.088;2023-06-22T14:43:49;35.00;91.40
23251;DHT22;11794;49.730;10.088;2023-06-22T14:46:18;34.40;91.60
23251;DHT22;11794;49.730;10.088;2023-06-22T14:48:44;34.20;92.70
23251;DHT22;11794;49.730;10.088;2023-06-22T14:51:10;34.20;92.20
23251;DHT22;11794;49.730;10.088;2023-06-22T14:53:36;34.10;92.80
23251;DHT22;11794;49.730;10.088;2023-06-22T14:56:01;34.20;92.10
23251;DHT22;11794;49.730;10.088;2023-06-22T14:58:31;33.90;92.10
23251;DHT22;11794;49.730;10.088;2023-06-22T15:01:00;33.80;91.30
23251;DHT22;11794;49.730;10.088;2023-06-22T15:03:25;33.90;91.30
23251;DHT22;11794;49.730;10.088;2023-06-22T15:05:54;33.90;90.70
23251;DHT22;11794;49.730;10.088;2023-06-22T15:08:20;33.90;90.80
23251;DHT22;11794;49.730;10.088;2023-06-22T15:10:46;34.00;90.80
23251;DHT22;11794;49.730;10.088;2023-06-22T15:13:12;34.00;90.50
23251;DHT22;11794;49.730;10.088;2023-06-22T15:15:38;33.90;90.60